Time;durP1;ratioP1;P1;durP2;ratioP2;P2;SDS_P1;SDS_P2;PMS_P1;PMS_P2;Temp;Humidity;BMP_temperature;BMP_pressure;BME280_temperature;BME280_humidity;BME280_pressure;Samples;Min_cycle;Max_cycle;Signal;HPM_P1;HPM_P2
2023/11/06 00:02:18;;;;;;;1.30;1.00;;;18.90;73.70;;;;;;5054855;28;20527;-87
2023/11/06 00:04:45;;;;;;;1.20;0.80;;;18.90;73.70;;;;;;5054766;28;20518;-87
2023/11/06 00:07:15;;;;;;;2.33;1.10;;;18.90;73.70;;;;;;5054822;28;20518;-87
2023/11/06 00:09:41;;;;;;;1.10;0.80;;;18.90;73.70;;;;;;5054791;28;20477;-87
2023/11/06 00:12:11;;;;;;;1.57;0.90;;;18.90;73.70;;;;;;5054498;28;20558;-87
2023/11/06 00:14:37;;;;;;;1.20;0.80;;;18.90;73.70;;;;;;5054661;28;20942;-87
2023/11/06 00:17:05;;;;;;;1.13;0.90;;;18.90;73.70;;;;;;5054505;28;20444;-87
2023/11/06 00:19:31;;;;;;;1.10;0.80;;;18.90;73.70;;;;;;5054506;28;21037;-87
2023/11/06 00:21:58;;;;;;;1.00;0.77;;;18.90;73.70;;;;;;5054547;28;20487;-87
2023/11/06 00:24:27;;;;;;;1.10;0.90;;;18.90;73.80;;;;;;5054431;28;20502;-87
2023/11/06 00:26:53;;;;;;;1.33;0.90;;;18.90;73.70;;;;;;5054403;28;20448;-87
2023/11/06 00:29:21;;;;;;;1.10;0.93;;;18.90;73.80;;;;;;5054371;28;20866;-87
2023/11/06 00:31:48;;;;;;;1.13;0.80;;;18.90;74.50;;;;;;5054251;28;20838;-88
2023/11/06 00:34:15;;;;;;;1.00;0.77;;;18.90;73.70;;;;;;5054302;28;20968;-87
2023/11/06 00:36:42;;;;;;;1.10;0.70;;;18.90;73.70;;;;;;5054156;28;20450;-87
2023/11/06 00:39:09;;;;;;;1.53;0.93;;;18.90;73.70;;;;;;5054098;28;20916;-87
2023/11/06 00:41:37;;;;;;;1.30;0.97;;;18.90;73.70;;;;;;5054055;28;20439;-87
2023/11/06 00:44:05;;;;;;;1.53;0.73;;;18.90;73.70;;;;;;5053995;28;20435;-88
2023/11/06 00:46:31;;;;;;;1.97;0.80;;;18.90;73.70;;;;;;5053657;28;20471;-87
2023/11/06 00:48:58;;;;;;;1.13;0.70;;;18.90;73.70;;;;;;5054040;28;20518;-87
2023/11/06 00:51:25;;;;;;;1.10;0.90;;;18.90;73.70;;;;;;5053775;28;20957;-87
2023/11/06 00:53:52;;;;;;;1.20;0.90;;;18.90;73.70;;;;;;5053818;28;20534;-87
2023/11/06 00:56:19;;;;;;;1.10;0.80;;;18.90;73.70;;;;;;5053771;28;20536;-87
2023/11/06 00:58:47;;;;;;;1.23;0.80;;;18.90;73.60;;;;;;5053734;28;20574;-88
2023/11/06 01:01:14;;;;;;;1.00;0.70;;;18.90;73.70;;;;;;5053626;28;20531;-87
2023/11/06 01:03:41;;;;;;;1.50;0.77;;;18.90;73.70;;;;;;5053724;28;20476;-88
2023/11/06 01:06:10;;;;;;;1.20;0.80;;;18.90;73.70;;;;;;5053563;28;20444;-87
2023/11/06 01:08:37;;;;;;;1.10;0.80;;;18.90;73.70;;;;;;5053609;28;20790;-88
2023/11/06 01:11:05;;;;;;;1.10;0.80;;;18.90;73.70;;;;;;5053314;28;20539;-87
2023/11/06 01:13:32;;;;;;;1.10;0.87;;;18.90;73.70;;;;;;5053542;28;20447;-87
2023/11/06 01:16:01;;;;;;;1.10;0.80;;;18.90;73.70;;;;;;5053519;28;20447;-87
2023/11/06 01:18:29;;;;;;;1.47;0.73;;;18.90;73.70;;;;;;5053435;28;20532;-87
2023/11/06 01:20:56;;;;;;;1.13;0.80;;;18.90;73.70;;;;;;5053293;28;20445;-87
2023/11/06 01:23:23;;;;;;;1.10;0.97;;;18.90;73.70;;;;;;5053320;28;20440;-87
2023/11/06 01:25:50;;;;;;;1.17;1.07;;;18.90;73.70;;;;;;5053384;28;20437;-88
2023/11/06 01:28:17;;;;;;;1.30;0.90;;;18.90;73.70;;;;;;5053328;28;20446;-87
2023/11/06 01:30:44;;;;;;;1.10;0.80;;;18.90;73.80;;;;;;5053189;28;20470;-88
2023/11/06 01:33:12;;;;;;;1.13;0.80;;;18.90;73.70;;;;;;5053213;28;20439;-87
2023/11/06 01:35:39;;;;;;;1.00;0.80;;;18.90;73.70;;;;;;5053148;28;20545;-87
2023/11/06 01:38:06;;;;;;;1.33;0.83;;;18.90;73.70;;;;;;5053020;28;20509;-87
2023/11/06 01:40:33;;;;;;;1.20;0.97;;;18.90;73.70;;;;;;5052897;28;20453;-87
2023/11/06 01:43:05;;;;;;;1.03;0.83;;;18.90;73.70;;;;;;5053079;28;20441;-87
2023/11/06 01:45:32;;;;;;;1.40;0.80;;;18.90;73.70;;;;;;5053128;28;20443;-87
2023/11/06 01:48:00;;;;;;;1.50;0.90;;;18.80;73.70;;;;;;5052709;28;20972;-87
2023/11/06 01:50:30;;;;;;;1.30;0.83;;;18.90;73.70;;;;;;5052934;28;20463;-87
2023/11/06 01:52:58;;;;;;;1.13;0.80;;;18.90;73.80;;;;;;5053032;28;20435;-87
2023/11/06 01:55:27;;;;;;;1.10;0.80;;;18.90;73.70;;;;;;5053028;28;20443;-88
2023/11/06 01:57:54;;;;;;;1.10;0.80;;;18.90;73.70;;;;;;5054732;28;20502;-87
2023/11/06 02:00:26;;;;;;;1.67;1.10;;;18.90;73.70;;;;;;5057216;28;20458;-87
2023/11/06 02:02:53;;;;;;;1.40;0.80;;;18.90;73.70;;;;;;5057131;28;20860;-87
2023/11/06 02:05:20;;;;;;;1.23;0.70;;;18.90;73.70;;;;;;5057265;28;20440;-88
2023/11/06 02:07:48;;;;;;;1.23;0.77;;;18.90;73.70;;;;;;5056813;28;20446;-87
2023/11/06 02:10:17;;;;;;;1.30;0.80;;;18.90;73.70;;;;;;5056828;28;20551;-87
2023/11/06 02:12:44;;;;;;;1.00;0.80;;;18.90;73.70;;;;;;5056657;28;20972;-88
2023/11/06 02:15:13;;;;;;;1.20;0.80;;;18.80;73.70;;;;;;5056783;28;20432;-87
2023/11/06 02:17:41;;;;;;;1.10;0.80;;;18.80;73.60;;;;;;5056820;28;20447;-88
2023/11/06 02:20:09;;;;;;;1.20;0.80;;;18.80;73.70;;;;;;5056580;28;20874;-87
2023/11/06 02:22:41;;;;;;;1.43;0.70;;;18.80;73.70;;;;;;5056817;28;20998;-87
2023/11/06 02:25:09;;;;;;;1.30;0.80;;;18.80;73.70;;;;;;5056550;28;20435;-88
2023/11/06 02:27:37;;;;;;;1.20;0.93;;;18.80;73.70;;;;;;5056615;28;20477;-87
2023/11/06 02:30:04;;;;;;;1.00;0.80;;;18.80;73.70;;;;;;5056573;28;20450;-88
2023/11/06 02:32:31;;;;;;;1.03;0.80;;;18.80;73.70;;;;;;5056525;28;20801;-88
2023/11/06 02:34:58;;;;;;;1.10;0.70;;;18.80;73.70;;;;;;5056539;28;20443;-87
2023/11/06 02:37:25;;;;;;;1.30;1.00;;;18.80;73.70;;;;;;5056463;28;20542;-87
2023/11/06 02:39:52;;;;;;;1.40;0.90;;;18.80;73.70;;;;;;5056167;28;20502;-87
2023/11/06 02:42:21;;;;;;;2.10;1.10;;;18.80;73.70;;;;;;5056368;28;20539;-87
2023/11/06 02:44:48;;;;;;;1.03;0.70;;;18.80;73.70;;;;;;5056282;28;20433;-88
2023/11/06 02:47:14;;;;;;;1.00;0.70;;;18.80;73.70;;;;;;5056188;28;20973;-88
2023/11/06 02:49:41;;;;;;;1.60;0.80;;;18.80;73.70;;;;;;5056038;28;20441;-87
2023/11/06 02:52:08;;;;;;;1.20;0.80;;;18.80;73.70;;;;;;5056238;28;20461;-88
2023/11/06 02:54:35;;;;;;;1.00;0.70;;;18.80;73.70;;;;;;5056078;28;20534;-87
2023/11/06 02:57:03;;;;;;;1.50;0.93;;;18.80;73.60;;;;;;5056051;28;20430;-88
2023/11/06 02:59:32;;;;;;;1.20;0.80;;;18.80;73.60;;;;;;5055825;28;20487;-87
2023/11/06 03:02:01;;;;;;;1.43;0.80;;;18.80;73.60;;;;;;5056307;28;20781;-88
2023/11/06 03:04:28;;;;;;;1.20;0.70;;;18.80;73.60;;;;;;5055913;28;21011;-88
2023/11/06 03:06:55;;;;;;;1.83;0.90;;;18.80;73.60;;;;;;5055977;28;20440;-88
2023/11/06 03:09:23;;;;;;;1.10;0.80;;;18.80;73.70;;;;;;5055304;28;20466;-93
2023/11/06 03:11:50;;;;;;;1.70;1.00;;;18.80;73.70;;;;;;5055874;28;20471;-88
2023/11/06 03:14:17;;;;;;;1.20;0.90;;;18.80;73.70;;;;;;5056003;28;20473;-87
2023/11/06 03:16:45;;;;;;;1.33;0.90;;;18.80;73.70;;;;;;5055689;28;20459;-87
2023/11/06 03:19:12;;;;;;;0.90;0.67;;;18.80;73.70;;;;;;5055486;28;20917;-88
2023/11/06 03:21:39;;;;;;;1.40;1.00;;;18.80;73.60;;;;;;5055600;28;20436;-87
2023/11/06 03:24:07;;;;;;;1.40;0.77;;;18.80;73.60;;;;;;5055603;28;20796;-87
2023/11/06 03:26:34;;;;;;;1.20;0.90;;;18.80;73.70;;;;;;5055530;28;20479;-88
2023/11/06 03:29:01;;;;;;;1.00;0.80;;;18.80;73.70;;;;;;5055372;28;20450;-87
2023/11/06 03:31:28;;;;;;;1.30;0.90;;;18.80;73.70;;;;;;5055369;28;20436;-87
2023/11/06 03:33:57;;;;;;;1.00;0.80;;;18.80;74.50;;;;;;5055349;28;20478;-87
2023/11/06 03:36:24;;;;;;;1.10;0.80;;;18.80;73.70;;;;;;5055316;28;20788;-87
2023/11/06 03:38:50;;;;;;;1.07;0.73;;;18.80;73.70;;;;;;5055194;28;20483;-87
2023/11/06 03:41:18;;;;;;;1.00;0.70;;;18.80;73.70;;;;;;5055137;28;20536;-88
2023/11/06 03:43:48;;;;;;;1.57;0.80;;;18.80;73.70;;;;;;5055295;28;20800;-87
2023/11/06 03:46:15;;;;;;;1.80;0.80;;;18.80;73.70;;;;;;5055172;28;20443;-88
2023/11/06 03:48:42;;;;;;;1.00;0.70;;;18.80;73.70;;;;;;5054976;28;20522;-88
2023/11/06 03:51:10;;;;;;;1.00;0.80;;;18.80;73.70;;;;;;5054986;28;20939;-87
2023/11/06 03:53:37;;;;;;;1.20;0.90;;;18.80;73.70;;;;;;5055052;28;20467;-88
2023/11/06 03:56:05;;;;;;;1.00;0.73;;;18.80;73.70;;;;;;5054969;28;20440;-88
2023/11/06 03:58:32;;;;;;;1.20;0.90;;;18.80;73.70;;;;;;5054828;28;20440;-87
2023/11/06 04:00:59;;;;;;;1.03;0.73;;;18.80;73.70;;;;;;5054810;28;20440;-87
2023/11/06 04:03:26;;;;;;;1.20;0.80;;;18.80;73.70;;;;;;5054864;28;20530;-87
2023/11/06 04:05:52;;;;;;;1.00;0.70;;;18.80;73.70;;;;;;5054852;28;20524;-87
2023/11/06 04:08:21;;;;;;;1.40;0.80;;;18.80;73.70;;;;;;5054505;28;20533;-87
2023/11/06 04:10:48;;;;;;;1.57;0.90;;;18.80;73.70;;;;;;5054526;28;20534;-87
2023/11/06 04:13:15;;;;;;;1.10;0.80;;;18.80;73.70;;;;;;5054552;28;20973;-87
2023/11/06 04:15:42;;;;;;;1.23;0.73;;;18.80;73.70;;;;;;5054594;28;20519;-87
2023/11/06 04:18:09;;;;;;;1.00;0.80;;;18.80;73.70;;;;;;5054607;28;20540;-90
2023/11/06 04:20:36;;;;;;;1.20;0.90;;;18.80;73.60;;;;;;5053602;28;20488;-88
2023/11/06 04:23:03;;;;;;;1.00;0.70;;;18.80;73.70;;;;;;5054431;28;20926;-89
2023/11/06 04:25:31;;;;;;;1.80;0.77;;;18.80;73.70;;;;;;5054432;28;20447;-87
2023/11/06 04:27:59;;;;;;;1.20;0.70;;;18.80;73.70;;;;;;5054291;28;20487;-87
2023/11/06 04:30:26;;;;;;;1.10;0.80;;;18.80;74.50;;;;;;5054224;28;20934;-88
2023/11/06 04:32:53;;;;;;;1.10;0.70;;;18.80;73.70;;;;;;5054446;28;20527;-87
2023/11/06 04:35:19;;;;;;;1.10;0.80;;;18.80;73.70;;;;;;5054098;28;21020;-87
2023/11/06 04:37:47;;;;;;;1.00;0.73;;;18.80;73.70;;;;;;5054209;28;20439;-87
2023/11/06 04:40:14;;;;;;;1.87;0.70;;;18.80;73.60;;;;;;5053921;28;20492;-87
2023/11/06 04:42:42;;;;;;;1.80;0.80;;;18.80;73.60;;;;;;5054246;28;20489;-87
2023/11/06 04:45:10;;;;;;;1.00;0.70;;;18.80;73.60;;;;;;5054135;28;20531;-87
2023/11/06 04:47:36;;;;;;;1.10;0.87;;;18.80;73.60;;;;;;5053903;28;20482;-87
2023/11/06 04:50:04;;;;;;;1.10;0.80;;;18.80;73.70;;;;;;5054016;28;20530;-88
2023/11/06 04:52:31;;;;;;;1.00;0.70;;;18.80;73.60;;;;;;5053842;28;20452;-87
2023/11/06 04:54:58;;;;;;;1.60;0.90;;;18.80;73.70;;;;;;5053981;28;20436;-88
2023/11/06 04:57:25;;;;;;;1.20;0.80;;;18.80;73.60;;;;;;5053896;28;20947;-87
2023/11/06 04:59:53;;;;;;;1.10;0.80;;;18.80;73.70;;;;;;5053597;28;20890;-90
2023/11/06 05:02:20;;;;;;;1.67;0.80;;;18.80;73.60;;;;;;5053794;28;20462;-87
2023/11/06 05:04:47;;;;;;;1.17;0.80;;;18.80;73.70;;;;;;5053660;28;20527;-87
2023/11/06 05:07:14;;;;;;;0.90;0.63;;;18.80;73.60;;;;;;5053585;28;20526;-87
2023/11/06 05:09:42;;;;;;;1.93;0.80;;;18.80;73.60;;;;;;5053410;28;20471;-87
2023/11/06 05:12:11;;;;;;;1.10;0.80;;;18.80;73.60;;;;;;5053589;28;20466;-88
2023/11/06 05:14:38;;;;;;;1.00;0.70;;;18.80;73.70;;;;;;5053501;28;20436;-88
2023/11/06 05:17:06;;;;;;;1.20;0.90;;;18.80;73.60;;;;;;5053472;28;20856;-88
2023/11/06 05:19:37;;;;;;;1.03;0.70;;;18.80;73.60;;;;;;5053337;28;20919;-87
2023/11/06 05:22:04;;;;;;;1.47;0.70;;;18.80;73.60;;;;;;5053408;28;20448;-88
2023/11/06 05:24:31;;;;;;;0.90;0.60;;;18.80;73.70;;;;;;5053461;28;20532;-88
2023/11/06 05:27:00;;;;;;;1.20;0.80;;;18.80;73.60;;;;;;5053298;28;20933;-88
2023/11/06 05:29:26;;;;;;;1.00;0.80;;;18.80;73.60;;;;;;5053385;28;20442;-87
2023/11/06 05:31:53;;;;;;;1.10;0.80;;;18.80;73.70;;;;;;5053054;28;20441;-87
2023/11/06 05:34:21;;;;;;;1.30;0.70;;;18.80;73.60;;;;;;5053248;28;20476;-88
2023/11/06 05:36:48;;;;;;;1.87;1.73;;;18.80;73.70;;;;;;5053129;28;20869;-87
2023/11/06 05:39:15;;;;;;;1.10;0.77;;;18.70;73.50;;;;;;5052875;28;20462;-87
2023/11/06 05:41:46;;;;;;;1.43;0.83;;;18.80;73.60;;;;;;5053247;28;20531;-87
2023/11/06 05:44:14;;;;;;;1.10;0.90;;;18.80;73.60;;;;;;5053164;28;20534;-87
2023/11/06 05:46:41;;;;;;;1.10;0.80;;;18.80;73.60;;;;;;5053083;28;20432;-87
2023/11/06 05:49:08;;;;;;;1.00;0.60;;;18.70;73.50;;;;;;5052855;28;20453;-87
2023/11/06 05:51:36;;;;;;;1.17;0.80;;;18.80;73.60;;;;;;5052931;28;20541;-87
2023/11/06 05:54:03;;;;;;;1.10;0.70;;;18.80;73.60;;;;;;5053093;28;20534;-87
2023/11/06 05:56:31;;;;;;;1.00;0.70;;;18.70;73.50;;;;;;5053029;28;20525;-87
2023/11/06 05:58:58;;;;;;;1.10;0.80;;;18.70;73.40;;;;;;5053056;28;20443;-87
2023/11/06 06:01:25;;;;;;;1.20;0.80;;;18.70;73.60;;;;;;5052842;28;20844;-87
2023/11/06 06:03:52;;;;;;;1.00;0.63;;;18.70;74.30;;;;;;5052922;28;20444;-87
2023/11/06 06:06:19;;;;;;;1.03;0.80;;;18.70;73.50;;;;;;5052874;28;20512;-87
2023/11/06 06:08:47;;;;;;;1.10;0.83;;;18.70;73.50;;;;;;5052550;28;21029;-88
2023/11/06 06:11:14;;;;;;;1.23;0.80;;;18.70;73.50;;;;;;5052705;28;20537;-87
2023/11/06 06:13:41;;;;;;;1.77;0.90;;;18.70;73.50;;;;;;5052870;28;20535;-87
2023/11/06 06:16:08;;;;;;;1.00;0.70;;;18.70;73.40;;;;;;5052813;28;20445;-87
2023/11/06 06:18:36;;;;;;;1.97;0.70;;;18.70;73.50;;;;;;5052774;28;20440;-88
2023/11/06 06:21:03;;;;;;;1.00;0.70;;;18.70;73.40;;;;;;5052539;28;20483;-87
2023/11/06 06:23:29;;;;;;;1.20;0.90;;;18.70;73.40;;;;;;5052754;28;20442;-87
2023/11/06 06:25:58;;;;;;;1.67;0.80;;;18.70;73.40;;;;;;5052670;28;20531;-87
2023/11/06 06:28:25;;;;;;;1.00;0.80;;;18.70;73.40;;;;;;5052626;28;20818;-87
2023/11/06 06:30:51;;;;;;;1.13;0.77;;;18.70;73.40;;;;;;5052584;28;20494;-95
2023/11/06 06:33:18;;;;;;;1.10;0.70;;;18.70;73.40;;;;;;5052673;28;20459;-87
2023/11/06 06:35:46;;;;;;;1.20;0.90;;;18.70;73.40;;;;;;5052698;28;20525;-87
2023/11/06 06:38:12;;;;;;;1.23;0.77;;;18.70;73.40;;;;;;5052640;28;20798;-87
2023/11/06 06:40:39;;;;;;;1.60;0.80;;;18.70;73.50;;;;;;5052437;28;20493;-87
2023/11/06 06:43:07;;;;;;;1.10;0.77;;;18.70;73.40;;;;;;5053058;28;20532;-87
2023/11/06 06:45:35;;;;;;;1.20;0.80;;;18.70;73.40;;;;;;5056312;28;20449;-87
2023/11/06 06:48:01;;;;;;;1.63;0.90;;;18.70;73.40;;;;;;5056228;28;20448;-88
2023/11/06 06:50:28;;;;;;;1.43;0.80;;;18.70;73.40;;;;;;5056264;28;20473;-87
2023/11/06 06:52:55;;;;;;;1.10;0.80;;;18.70;73.30;;;;;;5056146;28;20859;-94
2023/11/06 06:55:23;;;;;;;1.00;0.70;;;18.70;73.40;;;;;;5056075;28;20796;-87
2023/11/06 06:57:50;;;;;;;1.40;0.80;;;18.70;73.40;;;;;;5056073;28;20444;-87
2023/11/06 07:00:19;;;;;;;1.00;0.70;;;18.70;74.20;;;;;;5056011;28;20578;-87
2023/11/06 07:02:46;;;;;;;1.17;0.80;;;18.70;73.40;;;;;;5055934;28;20442;-87
2023/11/06 07:05:13;;;;;;;1.30;0.90;;;18.70;73.40;;;;;;5056201;28;20479;-87
2023/11/06 07:07:40;;;;;;;1.17;0.90;;;18.70;73.40;;;;;;5055792;28;20446;-87
2023/11/06 07:10:08;;;;;;;1.67;1.20;;;18.70;73.30;;;;;;5055791;28;20915;-87
2023/11/06 07:12:35;;;;;;;1.37;1.00;;;18.70;73.40;;;;;;5055605;28;20472;-87
2023/11/06 07:15:02;;;;;;;2.40;1.10;;;18.70;73.30;;;;;;5056077;28;20431;-87
2023/11/06 07:17:30;;;;;;;1.20;0.80;;;18.70;74.20;;;;;;5055825;28;20498;-87
2023/11/06 07:19:57;;;;;;;1.30;1.00;;;18.70;73.40;;;;;;5055644;28;20481;-87
2023/11/06 07:22:24;;;;;;;1.00;0.70;;;18.80;73.50;;;;;;5055672;28;20483;-87
2023/11/06 07:24:50;;;;;;;1.50;0.90;;;18.80;74.30;;;;;;5055642;28;20449;-88
2023/11/06 07:27:17;;;;;;;2.03;1.00;;;18.80;74.30;;;;;;5055578;28;20480;-89
2023/11/06 07:29:45;;;;;;;1.93;0.70;;;18.80;73.40;;;;;;5055323;28;20445;-87
2023/11/06 07:32:12;;;;;;;2.80;1.27;;;18.80;73.40;;;;;;5055390;28;20539;-87
2023/11/06 07:34:40;;;;;;;1.10;0.83;;;18.80;73.40;;;;;;5055465;28;20436;-87
2023/11/06 07:37:07;;;;;;;1.10;0.80;;;18.80;73.40;;;;;;5055484;28;20542;-87
2023/11/06 07:39:34;;;;;;;2.13;0.90;;;18.80;74.30;;;;;;5055220;28;20513;-87
2023/11/06 07:42:00;;;;;;;1.20;0.80;;;18.80;73.40;;;;;;5055385;28;21072;-88
2023/11/06 07:44:27;;;;;;;1.47;0.70;;;18.70;73.30;;;;;;5055500;28;20440;-87
2023/11/06 07:46:54;;;;;;;1.00;0.70;;;18.80;73.40;;;;;;5055275;28;20541;-87
2023/11/06 07:49:21;;;;;;;1.40;1.07;;;18.80;73.40;;;;;;5055280;28;20535;-87
2023/11/06 07:51:50;;;;;;;1.90;1.00;;;18.80;73.30;;;;;;5055438;28;20451;-95
2023/11/06 07:54:16;;;;;;;1.10;0.70;;;18.80;73.30;;;;;;5054763;28;20481;-87
2023/11/06 07:56:47;;;;;;;2.00;1.00;;;18.80;74.10;;;;;;5054330;28;20435;-87
2023/11/06 07:59:14;;;;;;;1.00;0.80;;;18.90;73.40;;;;;;5055110;28;20447;-87
2023/11/06 08:01:41;;;;;;;1.20;1.00;;;18.90;73.30;;;;;;5054920;28;20569;-87
2023/11/06 08:04:08;;;;;;;1.40;0.90;;;18.90;73.30;;;;;;5055102;28;20547;-87
2023/11/06 08:06:36;;;;;;;1.00;0.70;;;18.90;73.30;;;;;;5054972;28;20440;-87
2023/11/06 08:09:05;;;;;;;1.20;0.70;;;18.90;73.20;;;;;;5054704;28;20470;-88
2023/11/06 08:11:31;;;;;;;1.80;0.80;;;18.90;73.30;;;;;;5054896;28;20475;-87
2023/11/06 08:13:58;;;;;;;1.40;0.80;;;18.90;73.20;;;;;;5054722;28;21004;-87
2023/11/06 08:16:31;;;;;;;1.10;0.83;;;19.00;73.20;;;;;;5054709;28;20510;-87
2023/11/06 08:18:58;;;;;;;1.50;1.07;;;19.00;73.20;;;;;;5054714;28;20527;-88
2023/11/06 08:21:25;;;;;;;1.30;0.80;;;19.00;73.10;;;;;;5054693;28;20485;-87
2023/11/06 08:23:52;;;;;;;1.17;0.80;;;19.00;73.00;;;;;;5054525;28;20913;-88
2023/11/06 08:26:20;;;;;;;1.33;0.80;;;19.00;73.00;;;;;;5054583;28;20533;-87
2023/11/06 08:28:47;;;;;;;1.10;0.73;;;19.00;73.00;;;;;;5054405;28;20446;-88
2023/11/06 08:31:15;;;;;;;1.10;0.70;;;19.00;73.00;;;;;;5054296;28;20524;-87
2023/11/06 08:33:42;;;;;;;1.20;0.80;;;19.00;73.00;;;;;;5054674;28;20527;-87
2023/11/06 08:36:10;;;;;;;1.20;0.80;;;19.10;73.00;;;;;;5054298;28;20518;-88
2023/11/06 08:38:36;;;;;;;1.83;0.93;;;19.10;73.00;;;;;;5054183;28;20535;-88
2023/11/06 08:41:07;;;;;;;1.60;0.90;;;19.10;73.00;;;;;;5054353;28;20997;-87
2023/11/06 08:43:35;;;;;;;1.17;0.83;;;19.10;73.00;;;;;;5054497;28;20855;-88
2023/11/06 08:46:04;;;;;;;1.10;0.80;;;19.10;73.00;;;;;;5054339;28;20439;-88
2023/11/06 08:48:31;;;;;;;1.47;0.83;;;19.20;72.90;;;;;;5054274;28;20436;-88
2023/11/06 08:51:00;;;;;;;1.53;1.00;;;19.10;72.80;;;;;;5054303;28;20594;-87
2023/11/06 08:53:27;;;;;;;1.97;0.80;;;19.20;72.90;;;;;;5054002;28;20526;-87
2023/11/06 08:55:54;;;;;;;1.33;0.90;;;19.20;72.90;;;;;;5053855;28;20440;-87
2023/11/06 08:58:21;;;;;;;1.07;0.73;;;19.20;72.90;;;;;;5054022;28;20527;-87
2023/11/06 09:00:49;;;;;;;1.20;0.80;;;19.10;72.90;;;;;;5053689;28;21076;-87
2023/11/06 09:03:16;;;;;;;1.67;0.70;;;19.20;73.00;;;;;;5053886;28;20466;-87
2023/11/06 09:05:43;;;;;;;1.20;1.00;;;19.10;72.90;;;;;;5053526;28;20453;-87
2023/11/06 09:08:10;;;;;;;1.13;0.87;;;19.10;72.90;;;;;;5053623;28;20535;-87
2023/11/06 09:10:38;;;;;;;2.30;0.90;;;19.20;73.10;;;;;;5053682;28;20800;-95
2023/11/06 09:13:05;;;;;;;1.10;0.70;;;19.20;72.80;;;;;;5053597;28;20481;-87
2023/11/06 09:15:33;;;;;;;1.93;0.80;;;19.20;72.70;;;;;;5053637;28;20979;-88
2023/11/06 09:18:01;;;;;;;1.63;0.90;;;19.20;73.30;;;;;;5053577;28;20442;-87
2023/11/06 09:20:28;;;;;;;1.30;1.07;;;19.30;72.70;;;;;;5053409;28;21019;-87
2023/11/06 09:22:56;;;;;;;4.30;1.00;;;19.20;72.70;;;;;;5053395;28;20430;-87
2023/11/06 09:25:23;;;;;;;2.00;1.00;;;19.20;72.70;;;;;;5053537;28;20441;-87
2023/11/06 09:27:49;;;;;;;1.30;0.90;;;19.20;72.90;;;;;;5053474;28;20527;-87
2023/11/06 09:30:16;;;;;;;1.83;0.70;;;19.30;72.60;;;;;;5053209;28;20526;-88
2023/11/06 09:32:43;;;;;;;1.20;0.80;;;19.40;72.40;;;;;;5053500;28;20440;-88
2023/11/06 09:35:11;;;;;;;2.40;0.90;;;19.60;72.10;;;;;;5053314;28;20524;-88
2023/11/06 09:37:39;;;;;;;1.27;0.97;;;19.70;71.70;;;;;;5053473;28;20536;-87
2023/11/06 09:40:07;;;;;;;1.30;0.70;;;19.80;71.60;;;;;;5053175;28;20500;-88
2023/11/06 09:42:34;;;;;;;1.20;0.90;;;20.00;71.30;;;;;;5053257;28;20574;-87
2023/11/06 09:45:01;;;;;;;1.83;0.90;;;20.30;70.80;;;;;;5053211;28;20904;-88
2023/11/06 09:47:28;;;;;;;1.20;0.90;;;20.40;70.30;;;;;;5053101;28;20468;-88
2023/11/06 09:50:02;;;;;;;1.87;0.90;;;20.50;70.00;;;;;;5053284;28;20516;-89
2023/11/06 09:52:30;;;;;;;1.50;0.97;;;20.50;69.90;;;;;;5053100;28;20437;-88
2023/11/06 09:54:59;;;;;;;2.30;0.73;;;20.60;70.00;;;;;;5052999;28;20469;-87
2023/11/06 09:57:27;;;;;;;1.20;0.73;;;20.70;69.80;;;;;;5053112;28;20440;-88
2023/11/06 09:59:54;;;;;;;1.27;0.90;;;20.70;69.90;;;;;;5053125;28;20940;-88
2023/11/06 10:02:24;;;;;;;1.10;0.90;;;20.90;69.90;;;;;;5053019;28;20495;-88
2023/11/06 10:04:52;;;;;;;1.00;0.63;;;21.20;69.00;;;;;;5053064;28;20516;-88
2023/11/06 10:07:39;;;;;;;1.87;0.90;;;21.70;68.10;;;;;;5052903;28;20445;-88
2023/11/06 10:10:12;;;;;;;1.67;0.90;;;22.10;67.40;;;;;;5052862;28;20453;-88
2023/11/06 10:12:39;;;;;;;1.20;0.80;;;22.20;67.10;;;;;;5052971;28;20480;-88
2023/11/06 10:15:07;;;;;;;1.70;1.00;;;22.00;67.50;;;;;;5052923;28;20429;-88
2023/11/06 10:17:34;;;;;;;1.27;0.70;;;21.90;68.00;;;;;;5053086;28;20440;-96
2023/11/06 10:20:05;;;;;;;1.30;0.77;;;21.70;68.60;;;;;;5056391;28;20440;-88
2023/11/06 10:22:34;;;;;;;1.90;1.10;;;21.50;69.10;;;;;;5057316;28;20481;-96
2023/11/06 10:25:03;;;;;;;1.20;0.80;;;21.40;69.70;;;;;;5056662;28;20452;-88
2023/11/06 10:27:30;;;;;;;1.33;0.80;;;21.20;69.90;;;;;;5057056;28;20438;-88
2023/11/06 10:30:04;;;;;;;1.10;0.63;;;21.20;70.40;;;;;;5056823;28;20489;-96
2023/11/06 10:32:31;;;;;;;3.77;1.17;;;21.20;70.70;;;;;;5056792;28;20447;-88
2023/11/06 10:35:01;;;;;;;2.27;1.00;;;21.10;70.70;;;;;;5056839;28;20786;-96
2023/11/06 10:37:28;;;;;;;1.13;0.77;;;21.10;70.90;;;;;;5056802;28;20448;-88
2023/11/06 10:39:57;;;;;;;1.60;0.90;;;21.10;71.20;;;;;;5056390;28;20449;-88
2023/11/06 10:42:25;;;;;;;1.00;0.80;;;21.00;71.20;;;;;;5056428;28;20876;-87
2023/11/06 10:44:57;;;;;;;1.10;0.80;;;21.00;71.40;;;;;;5056765;28;20447;-88
2023/11/06 10:47:33;;;;;;;2.60;1.00;;;21.00;71.70;;;;;;5056605;28;20921;-96
2023/11/06 10:50:06;;;;;;;1.00;0.70;;;20.90;71.80;;;;;;5056381;28;20512;-88
2023/11/06 10:52:34;;;;;;;1.00;0.70;;;20.80;71.80;;;;;;5056394;28;20440;-88
2023/11/06 10:55:02;;;;;;;1.10;0.70;;;20.80;72.00;;;;;;5056487;28;20796;-88
2023/11/06 10:57:34;;;;;;;1.30;1.00;;;20.70;72.00;;;;;;5056224;28;20429;-96
2023/11/06 11:00:07;;;;;;;1.13;0.77;;;20.60;72.20;;;;;;5056115;28;20436;-87
2023/11/06 11:02:52;;;;;;;1.10;0.60;;;20.50;72.20;;;;;;5055983;28;20484;-87
2023/11/06 11:05:23;;;;;;;2.33;1.43;;;20.50;72.40;;;;;;5056195;28;20433;-88
2023/11/06 11:07:51;;;;;;;1.87;0.80;;;20.40;72.50;;;;;;5056080;28;20437;-87
2023/11/06 11:10:20;;;;;;;1.20;0.70;;;20.40;72.60;;;;;;5055905;28;20888;-87
2023/11/06 11:12:51;;;;;;;1.50;0.90;;;20.30;72.80;;;;;;5055763;28;20508;-88
2023/11/06 11:15:25;;;;;;;1.07;0.73;;;20.30;72.90;;;;;;5056145;28;20529;-88
2023/11/06 11:17:59;;;;;;;1.93;1.00;;;20.30;73.10;;;;;;5056175;28;20795;-88
2023/11/06 11:20:27;;;;;;;1.63;0.80;;;20.20;73.10;;;;;;5056057;28;20468;-87
2023/11/06 11:23:06;;;;;;;1.00;0.70;;;20.20;73.10;;;;;;5055694;28;20508;-95
2023/11/06 11:25:55;;;;;;;1.30;1.00;;;20.10;73.10;;;;;;5056035;28;20838;-87
2023/11/06 11:28:24;;;;;;;1.27;0.70;;;20.10;73.20;;;;;;5055653;28;20480;-88
2023/11/06 11:30:51;;;;;;;1.83;0.80;;;20.10;73.30;;;;;;5055421;28;20471;-96
2023/11/06 11:33:55;;;;;;;1.20;0.90;;;20.00;73.20;;;;;;5055781;28;20532;-88
2023/11/06 11:36:33;;;;;;;1.00;0.70;;;20.00;73.20;;;;;;5055653;28;20437;-88
2023/11/06 11:39:01;;;;;;;1.20;0.80;;;20.00;73.40;;;;;;5055416;28;20544;-87
2023/11/06 11:41:28;;;;;;;1.30;0.70;;;20.00;73.40;;;;;;5055517;28;20492;-87
2023/11/06 11:44:07;;;;;;;1.03;0.70;;;19.90;73.30;;;;;;5055578;28;20446;-89
2023/11/06 11:46:53;;;;;;;1.37;1.00;;;19.90;73.30;;;;;;5055212;28;20437;-87
2023/11/06 11:49:41;;;;;;;1.10;0.77;;;19.90;73.40;;;;;;5055367;28;20463;-87
2023/11/06 11:52:09;;;;;;;1.30;0.70;;;19.90;73.30;;;;;;5055266;28;20931;-88
2023/11/06 11:54:38;;;;;;;2.13;1.03;;;19.90;73.40;;;;;;5055109;28;20448;-87
2023/11/06 11:57:05;;;;;;;2.17;0.97;;;19.90;73.30;;;;;;5055186;28;20798;-88
2023/11/06 11:59:45;;;;;;;1.10;0.73;;;19.90;73.40;;;;;;5054904;28;20447;-87
2023/11/06 12:02:26;;;;;;;1.27;1.00;;;19.90;73.50;;;;;;5055213;28;20838;-88
2023/11/06 12:04:55;;;;;;;1.73;0.70;;;19.90;73.40;;;;;;5055065;28;20507;-88
2023/11/06 12:07:23;;;;;;;1.10;0.70;;;19.90;73.40;;;;;;5055189;28;20447;-87
2023/11/06 12:09:51;;;;;;;1.00;0.73;;;19.90;73.50;;;;;;5054672;28;20487;-88
2023/11/06 12:12:20;;;;;;;1.40;1.07;;;19.90;73.50;;;;;;5054776;28;20472;-88
2023/11/06 12:14:48;;;;;;;1.60;0.73;;;19.90;73.60;;;;;;5054852;28;20881;-88
2023/11/06 12:17:29;;;;;;;1.73;0.80;;;19.90;73.60;;;;;;5054873;28;20536;-88
2023/11/06 12:19:56;;;;;;;3.00;0.83;;;19.90;73.60;;;;;;5054893;28;20843;-87
2023/11/06 12:22:23;;;;;;;1.43;0.73;;;19.90;73.60;;;;;;5054701;28;20485;-87
2023/11/06 12:24:51;;;;;;;1.50;0.97;;;19.90;73.70;;;;;;5054557;28;20449;-88
2023/11/06 12:27:19;;;;;;;1.37;0.90;;;19.80;73.70;;;;;;5054782;28;20433;-89
2023/11/06 12:29:46;;;;;;;1.50;0.90;;;19.80;73.70;;;;;;5054388;28;20841;-88
2023/11/06 12:32:24;;;;;;;1.10;0.87;;;19.80;73.70;;;;;;5054581;28;20429;-88
2023/11/06 12:35:07;;;;;;;1.00;0.70;;;19.80;73.70;;;;;;5054339;28;20523;-87
2023/11/06 12:37:48;;;;;;;1.40;0.83;;;19.80;73.70;;;;;;5054431;28;20436;-87
2023/11/06 12:40:15;;;;;;;2.57;0.97;;;19.80;73.70;;;;;;5054300;28;20551;-87
2023/11/06 12:42:42;;;;;;;1.50;0.80;;;19.80;73.70;;;;;;5053765;28;21078;-88
2023/11/06 12:45:25;;;;;;;1.40;0.80;;;19.80;73.80;;;;;;5054151;28;20444;-88
2023/11/06 12:47:53;;;;;;;1.00;0.70;;;19.80;74.70;;;;;;5054036;28;20436;-88
2023/11/06 12:50:21;;;;;;;1.60;0.80;;;19.70;73.70;;;;;;5053904;28;20439;-88
2023/11/06 12:52:48;;;;;;;1.50;0.70;;;19.80;73.70;;;;;;5054033;28;20485;-88
2023/11/06 12:55:15;;;;;;;1.50;0.80;;;19.80;73.80;;;;;;5053964;28;20436;-88